Time;durP1;ratioP1;P1;durP2;ratioP2;P2;SDS_P1;SDS_P2;PMS_P1;PMS_P2;Temp;Humidity;BMP_temperature;BMP_pressure;BME280_temperature;BME280_humidity;BME280_pressure;Samples;Min_cycle;Max_cycle;Signal;HPM_P1;HPM_P2
2022/12/22 03:28:23;;;;;;;10.80;3.90;;;;;;;7.76;100.00;100328.56;6095655;28;21846;-67
2022/12/22 03:31:44;;;;;;;4.97;4.53;;;;;;;7.77;100.00;100327.56;6104515;28;20243;-67
2022/12/22 03:35:06;;;;;;;5.50;4.03;;;;;;;7.70;100.00;100319.19;6107978;28;20329;-66
2022/12/22 03:38:28;;;;;;;6.40;4.83;;;;;;;7.67;100.00;100316.78;6096781;28;20235;-67
2022/12/22 03:49:09;;;;;;;5.50;4.60;;;;;;;7.74;100.00;100304.53;6088143;28;20268;-67
2022/12/22 03:52:30;;;;;;;4.87;4.37;;;;;;;7.74;100.00;100303.72;6092975;28;20228;-67
2022/12/22 03:55:53;;;;;;;5.23;4.53;;;;;;;7.76;100.00;100310.63;6093982;28;20231;-67
2022/12/22 03:59:14;;;;;;;4.43;4.00;;;;;;;7.74;100.00;100298.34;6092647;28;20234;-67
2022/12/22 04:02:35;;;;;;;6.13;4.33;;;;;;;7.74;100.00;100291.13;6097517;28;20232;-66
2022/12/22 04:05:56;;;;;;;7.63;3.60;;;;;;;7.74;100.00;100296.50;6098297;28;20259;-67
2022/12/22 04:09:17;;;;;;;4.70;4.20;;;;;;;7.71;100.00;100291.41;6104387;28;20412;-67
2022/12/22 04:12:53;;;;;;;5.10;4.40;;;;;;;7.76;100.00;100278.44;6101088;28;20236;-67
2022/12/22 04:16:14;;;;;;;4.87;4.40;;;;;;;7.78;100.00;100284.50;6099219;28;20231;-67
2022/12/22 04:19:35;;;;;;;6.97;4.87;;;;;;;7.88;100.00;100281.91;6107984;28;20231;-66
2022/12/22 04:22:56;;;;;;;4.77;3.63;;;;;;;7.89;100.00;100267.47;6090454;28;20262;-67
2022/12/22 04:26:18;;;;;;;5.30;3.83;;;;;;;7.91;100.00;100260.13;6114509;28;20320;-67
2022/12/22 04:29:40;;;;;;;7.27;5.13;;;;;;;7.72;100.00;100260.91;6086981;28;20228;-67
2022/12/22 04:33:01;;;;;;;5.43;4.87;;;;;;;7.58;100.00;100255.03;6093972;28;20257;-67
2022/12/22 04:36:22;;;;;;;6.53;4.70;;;;;;;7.66;100.00;100245.34;6109576;28;20239;-67
2022/12/22 04:39:43;;;;;;;4.90;4.40;;;;;;;7.71;100.00;100245.81;6104551;28;20239;-67
2022/12/22 04:43:04;;;;;;;5.07;3.70;;;;;;;7.64;100.00;100243.75;6092987;28;20259;-67
2022/12/22 04:46:26;;;;;;;3.93;3.57;;;;;;;7.74;100.00;100242.00;6103090;28;20404;-67
2022/12/22 04:49:47;;;;;;;4.80;4.20;;;;;;;7.75;100.00;100236.50;6087830;28;20239;-66
2022/12/22 04:53:08;;;;;;;4.83;4.20;;;;;;;7.66;100.00;100223.88;6086316;28;20236;-67
2022/12/22 04:56:29;;;;;;;8.07;3.97;;;;;;;7.65;100.00;100226.69;6093742;28;20498;-67
2022/12/22 04:59:50;;;;;;;6.70;4.83;;;;;;;7.58;100.00;100220.16;6091997;28;20567;-67
2022/12/22 05:03:12;;;;;;;5.57;4.33;;;;;;;7.61;100.00;100214.53;6092617;28;22101;-67
2022/12/22 05:06:33;;;;;;;4.10;3.70;;;;;;;7.66;100.00;100214.97;6103933;28;20235;-66
2022/12/22 05:09:54;;;;;;;5.10;3.83;;;;;;;7.66;100.00;100215.84;6093947;28;20236;-66
2022/12/22 05:13:15;;;;;;;4.00;3.67;;;;;;;7.56;100.00;100204.22;6090222;28;20236;-65
2022/12/22 05:16:35;;;;;;;7.73;4.43;;;;;;;7.63;100.00;100205.38;6096477;28;20224;-65
2022/12/22 05:19:58;;;;;;;6.80;4.40;;;;;;;7.77;100.00;100193.44;6102790;28;20255;-66
2022/12/22 05:23:19;;;;;;;4.43;3.93;;;;;;;7.83;100.00;100192.88;6094403;28;20331;-66
2022/12/22 05:26:39;;;;;;;3.60;3.30;;;;;;;7.74;100.00;100191.84;6105818;28;20850;-67
2022/12/22 05:30:00;;;;;;;4.97;4.47;;;;;;;7.77;100.00;100191.59;6108035;28;20265;-67
2022/12/22 05:33:21;;;;;;;4.10;3.70;;;;;;;7.76;100.00;100189.06;6095890;28;20235;-66
2022/12/22 05:36:43;;;;;;;9.83;4.03;;;;;;;7.73;100.00;100190.19;6109191;28;20924;-66
2022/12/22 05:40:06;;;;;;;5.07;4.60;;;;;;;7.70;100.00;100194.94;6107313;28;20325;-67
2022/12/22 05:43:27;;;;;;;5.33;4.63;;;;;;;7.67;100.00;100196.09;6101197;28;20239;-65
2022/12/22 05:46:50;;;;;;;5.87;4.27;;;;;;;7.67;100.00;100197.91;6109112;28;20236;-66
2022/12/22 05:50:12;;;;;;;4.73;3.73;;;;;;;7.71;100.00;100184.09;6105286;28;20235;-67
2022/12/22 05:53:34;;;;;;;8.83;4.37;;;;;;;7.76;100.00;100189.06;6099556;28;20243;-66
2022/12/22 05:56:55;;;;;;;6.33;5.73;;;;;;;7.79;100.00;100195.00;6108621;28;20791;-67
2022/12/22 06:00:17;;;;;;;12.20;5.50;;;;;;;7.82;100.00;100200.06;6080978;28;20240;-66
2022/12/22 06:03:38;;;;;;;7.23;3.93;;;;;;;7.79;100.00;100192.31;6086786;28;20235;-67
2022/12/22 06:06:59;;;;;;;7.10;5.67;;;;;;;7.78;100.00;100187.91;6100619;28;20685;-67
2022/12/22 06:10:21;;;;;;;7.20;5.20;;;;;;;7.88;100.00;100193.34;6101970;28;20227;-67
2022/12/22 06:13:42;;;;;;;9.83;7.03;;;;;;;7.97;100.00;100177.25;6082158;28;20319;-67
2022/12/22 06:17:03;;;;;;;9.13;5.43;;;;;;;8.03;100.00;100174.03;6105176;28;20718;-66
2022/12/22 06:20:24;;;;;;;6.83;5.43;;;;;;;8.05;100.00;100176.59;6099256;28;20510;-68
2022/12/22 06:23:45;;;;;;;8.80;6.23;;;;;;;8.02;100.00;100166.13;6090852;28;20227;-68
2022/12/22 06:27:07;;;;;;;8.10;5.67;;;;;;;7.99;100.00;100167.22;6107768;28;20227;-68
2022/12/22 06:30:28;;;;;;;9.27;5.87;;;;;;;7.92;100.00;100179.53;6108934;28;20228;-66
2022/12/22 06:33:49;;;;;;;6.83;5.50;;;;;;;7.92;100.00;100168.78;6089433;28;20240;-67
2022/12/22 06:37:10;;;;;;;10.13;6.00;;;;;;;8.06;100.00;100172.91;6101486;28;20227;-66
2022/12/22 06:40:31;;;;;;;7.37;6.33;;;;;;;8.14;100.00;100172.19;6101932;28;20232;-67
2022/12/22 06:43:52;;;;;;;10.50;7.73;;;;;;;8.22;100.00;100167.84;6081327;28;20223;-68
2022/12/22 06:47:13;;;;;;;10.43;6.63;;;;;;;8.30;100.00;100161.84;6094674;28;20350;-66
2022/12/22 06:50:33;;;;;;;6.03;5.43;;;;;;;8.30;100.00;100160.00;6106152;28;20642;-67
2022/12/22 06:53:55;;;;;;;6.93;5.47;;;;;;;8.29;100.00;100163.66;6078563;28;20227;-67
2022/12/22 06:57:16;;;;;;;8.17;6.03;;;;;;;8.24;100.00;100173.94;6095250;28;20326;-67
2022/12/22 07:00:38;;;;;;;6.60;5.90;;;;;;;8.17;100.00;100169.25;6077191;28;20235;-67
2022/12/22 07:03:59;;;;;;;6.90;5.87;;;;;;;8.22;100.00;100178.59;6079965;28;20243;-67
2022/12/22 07:07:20;;;;;;;8.07;6.77;;;;;;;8.25;100.00;100177.47;6101529;28;20256;-67
2022/12/22 07:10:59;;;;;;;7.57;5.30;;;;;;;8.28;100.00;100174.56;6093471;28;20259;-66
2022/12/22 07:14:20;;;;;;;7.47;5.57;;;;;;;8.42;100.00;100174.13;6101496;28;20235;-68
2022/12/22 07:17:42;;;;;;;10.57;6.13;;;;;;;8.47;100.00;100169.22;6094258;28;20614;-67
2022/12/22 07:21:06;;;;;;;7.03;6.13;;;;;;;8.24;100.00;100170.41;6090651;28;20258;-67
2022/12/22 07:24:28;;;;;;;6.83;5.73;;;;;;;8.09;100.00;100168.09;6103354;28;20235;-66
2022/12/22 07:27:48;;;;;;;7.77;5.53;;;;;;;8.20;100.00;100171.69;6100392;28;20237;-67
2022/12/22 07:31:11;;;;;;;7.03;4.97;;;;;;;8.15;100.00;100157.81;6098126;28;20232;-67
2022/12/22 07:34:33;;;;;;;7.17;5.20;;;;;;;8.09;100.00;100164.59;6103359;28;20637;-66
2022/12/22 07:37:54;;;;;;;6.77;6.03;;;;;;;8.18;100.00;100168.28;6095496;28;20243;-68
2022/12/22 07:44:55;;;;;;;5.30;4.80;;;;;;;8.18;100.00;100162.91;6085893;28;20618;-67
2022/12/22 07:51:58;;;;;;;5.53;4.97;;;;;;;8.07;100.00;100163.88;6097972;28;20232;-67
2022/12/22 07:55:19;;;;;;;8.23;5.13;;;;;;;8.18;100.00;100170.97;6092936;28;20775;-67
2022/12/22 07:58:39;;;;;;;8.57;5.30;;;;;;;8.18;100.00;100177.16;6093110;28;20231;-67
2022/12/22 08:02:00;;;;;;;7.63;5.33;;;;;;;8.23;100.00;100176.75;6093192;28;20236;-67
2022/12/22 08:05:22;;;;;;;6.83;6.07;;;;;;;8.11;100.00;100170.66;6094133;28;20863;-67
2022/12/22 08:08:45;;;;;;;5.83;4.77;;;;;;;8.14;100.00;100178.44;6085576;28;20287;-67
2022/12/22 08:12:06;;;;;;;7.47;6.00;;;;;;;8.15;100.00;100171.22;6084933;28;20227;-67
2022/12/22 08:15:27;;;;;;;8.67;5.87;;;;;;;7.98;100.00;100170.06;6103696;28;20228;-66
2022/12/22 08:18:49;;;;;;;7.13;6.47;;;;;;;7.92;100.00;100179.53;6084307;28;20231;-69
2022/12/22 08:22:11;;;;;;;6.23;4.87;;;;;;;8.07;100.00;100177.31;6088834;28;20255;-70
2022/12/22 08:25:34;;;;;;;8.03;6.47;;;;;;;8.20;100.00;100172.50;6099989;28;20244;-68
2022/12/22 08:28:59;;;;;;;8.97;8.07;;;;;;;8.24;100.00;100171.25;6106429;28;20748;-69
2022/12/22 08:32:20;;;;;;;8.50;5.70;;;;;;;8.29;100.00;100171.72;6100196;28;20705;-68
2022/12/22 08:35:42;;;;;;;7.33;6.00;;;;;;;8.17;100.00;100170.13;6102110;28;20235;-67
2022/12/22 08:39:04;;;;;;;6.10;5.50;;;;;;;8.48;100.00;100168.19;6101347;28;20231;-69
2022/12/22 08:42:27;;;;;;;6.37;5.67;;;;;;;8.31;100.00;100169.75;6093804;28;20225;-68
2022/12/22 08:45:48;;;;;;;7.63;5.83;;;;;;;8.39;100.00;100177.94;6097052;28;22626;-68
2022/12/22 08:49:09;;;;;;;8.83;6.00;;;;;;;8.46;100.00;100170.19;6079988;28;20227;-67
2022/12/22 08:52:30;;;;;;;7.43;6.37;;;;;;;8.35;100.00;100164.94;6088158;28;20244;-67
2022/12/22 08:55:52;;;;;;;8.27;7.47;;;;;;;8.32;100.00;100179.50;6082404;28;20864;-68
2022/12/22 08:59:15;;;;;;;6.13;5.53;;;;;;;8.37;100.00;100173.69;6087613;28;20326;-67
2022/12/22 09:02:37;;;;;;;7.93;7.00;;;;;;;8.13;100.00;100186.63;6100338;28;20228;-67
2022/12/22 09:06:00;;;;;;;7.37;5.50;;;;;;;8.01;100.00;100191.25;6100089;28;20236;-67
2022/12/22 09:09:21;;;;;;;8.50;5.57;;;;;;;8.04;100.00;100178.41;6101649;28;20232;-68
2022/12/22 09:12:42;;;;;;;6.03;5.07;;;;;;;8.09;100.00;100176.16;6095108;28;20243;-68
2022/12/22 09:16:06;;;;;;;5.57;5.07;;;;;;;8.11;100.00;100165.31;6090468;28;20239;-67
2022/12/22 09:19:27;;;;;;;5.90;4.50;;;;;;;8.18;100.00;100168.28;6100894;28;20234;-68
2022/12/22 09:22:48;;;;;;;6.63;5.97;;;;;;;8.24;100.00;100173.09;6093561;28;20325;-69
2022/12/22 09:26:10;;;;;;;5.27;4.47;;;;;;;8.23;100.00;100176.75;6103877;28;20252;-70
2022/12/22 09:29:30;;;;;;;4.10;3.67;;;;;;;8.35;100.00;100167.63;6110737;28;20637;-69
2022/12/22 09:32:54;;;;;;;5.83;5.17;;;;;;;8.33;100.00;100172.28;6096685;28;20262;-67
2022/12/22 09:36:17;;;;;;;6.23;4.23;;;;;;;8.34;100.00;100171.31;6107523;28;20244;-67
2022/12/22 09:39:38;;;;;;;5.73;4.57;;;;;;;8.35;100.00;100172.97;6106404;28;20231;-68
2022/12/22 09:42:59;;;;;;;6.60;4.77;;;;;;;8.35;100.00;100181.03;6099532;28;20578;-67
2022/12/22 09:46:23;;;;;;;7.13;6.27;;;;;;;8.46;100.00;100187.16;6116060;28;20240;-69
2022/12/22 09:49:45;;;;;;;5.47;4.90;;;;;;;8.51;100.00;100176.00;6084702;28;20259;-69
2022/12/22 09:53:13;;;;;;;8.73;6.13;;;;;;;8.52;100.00;100178.53;6077703;28;20513;-69
2022/12/22 09:56:35;;;;;;;8.00;6.80;;;;;;;8.50;100.00;100180.50;6078543;28;20231;-69
2022/12/22 09:59:56;;;;;;;8.43;6.60;;;;;;;8.56;100.00;100181.78;6082140;28;20306;-69
2022/12/22 10:03:29;;;;;;;9.63;7.23;;;;;;;8.47;100.00;100177.25;6067630;28;20235;-69
2022/12/22 10:07:00;;;;;;;11.03;8.07;;;;;;;8.62;100.00;100186.59;6105255;28;20239;-69
2022/12/22 10:10:26;;;;;;;9.57;7.70;;;;;;;8.48;100.00;100187.88;6080549;28;20243;-69
2022/12/22 10:13:47;;;;;;;8.53;7.73;;;;;;;8.46;100.00;100188.97;6085625;28;20618;-69
2022/12/22 10:17:19;;;;;;;11.70;7.27;;;;;;;8.42;100.00;100187.56;6086215;28;20236;-71
2022/12/22 10:20:41;;;;;;;9.30;7.67;;;;;;;8.54;100.00;100200.72;6090275;28;20236;-69
2022/12/22 10:24:17;;;;;;;10.30;7.23;;;;;;;8.50;100.00;100193.09;6087251;28;20235;-68
2022/12/22 10:27:38;;;;;;;10.90;7.73;;;;;;;8.49;100.00;100200.28;6098280;28;20331;-68
2022/12/22 10:31:16;;;;;;;8.53;6.67;;;;;;;8.84;100.00;100197.06;6101180;28;20540;-69
2022/12/22 10:34:36;;;;;;;8.60;7.70;;;;;;;8.61;100.00;100199.19;6102375;28;20231;-67
2022/12/22 10:37:57;;;;;;;9.70;7.07;;;;;;;8.54;100.00;100203.41;6098263;28;20247;-68
2022/12/22 10:41:22;;;;;;;10.57;8.93;;;;;;;8.63;100.00;100199.03;6114707;28;20315;-67
2022/12/22 10:44:47;;;;;;;9.00;7.17;;;;;;;8.56;100.00;100197.91;6107256;28;20517;-66
2022/12/22 10:48:08;;;;;;;8.97;7.93;;;;;;;8.56;100.00;100204.13;6091322;28;20244;-66
2022/12/22 10:51:29;;;;;;;10.63;7.20;;;;;;;8.75;100.00;100204.13;6109728;28;20233;-66
2022/12/22 10:54:50;;;;;;;8.10;6.50;;;;;;;8.71;98.83;100204.56;6095619;28;20849;-66
2022/12/22 10:58:17;;;;;;;7.23;5.57;;;;;;;8.69;98.69;100203.84;6081566;28;20251;-66
2022/12/22 11:01:38;;;;;;;7.30;6.03;;;;;;;8.95;97.98;100210.34;6109351;28;21902;-67
2022/12/22 11:05:05;;;;;;;9.97;5.93;;;;;;;10.28;92.25;100194.81;6097739;28;20236;-67
2022/12/22 11:08:26;;;;;;;6.83;6.13;;;;;;;12.94;77.02;100186.50;6043392;28;20243;-66
2022/12/22 11:11:51;;;;;;;8.00;6.10;;;;;;;15.36;68.54;100183.66;6049653;28;22065;-67
2022/12/22 11:15:25;;;;;;;5.87;5.23;;;;;;;15.36;66.38;100188.25;6050115;28;20259;-66
2022/12/22 11:19:00;;;;;;;5.70;5.10;;;;;;;12.46;74.62;100192.69;6032029;28;20239;-67
2022/12/22 11:22:34;;;;;;;6.37;5.73;;;;;;;11.40;79.23;100194.16;6046806;28;20220;-66
2022/12/22 11:26:03;;;;;;;5.30;4.77;;;;;;;10.03;85.51;100201.72;6052393;28;20568;-67
2022/12/22 11:29:48;;;;;;;8.73;5.83;;;;;;;9.77;87.88;100192.63;6055556;28;20325;-66
2022/12/22 11:33:28;;;;;;;5.77;4.80;;;;;;;9.81;88.37;100203.91;6047800;28;20232;-65
2022/12/22 11:37:04;;;;;;;7.93;5.60;;;;;;;9.54;89.28;100196.66;6082948;28;20239;-67
2022/12/22 11:40:32;;;;;;;6.33;5.13;;;;;;;9.88;88.27;100197.81;6086005;28;20232;-66
2022/12/22 11:44:07;;;;;;;9.97;5.37;;;;;;;11.69;81.88;100189.31;6101380;28;20242;-67
2022/12/22 11:47:37;;;;;;;6.27;5.67;;;;;;;12.69;75.68;100187.47;6114092;28;20499;-66
2022/12/22 11:51:12;;;;;;;6.77;5.13;;;;;;;15.57;64.76;100177.53;6113966;28;20317;-67
2022/12/22 11:54:48;;;;;;;6.17;5.23;;;;;;;15.91;61.57;100186.00;6107852;28;20688;-67
2022/12/22 11:58:33;;;;;;;7.43;4.80;;;;;;;15.35;62.17;100198.28;6113318;28;20239;-66
2022/12/22 12:02:13;;;;;;;5.88;4.18;;;;;;;18.05;55.82;100196.63;6123148;28;20236;-66
2022/12/22 12:05:47;;;;;;;5.03;4.53;;;;;;;17.35;54.27;100195.88;6119666;28;20235;-67
2022/12/22 12:09:29;;;;;;;5.30;4.80;;;;;;;13.64;67.10;100217.47;6113589;28;20239;-67
2022/12/22 12:12:57;;;;;;;6.90;5.67;;;;;;;11.46;75.41;100231.28;6114032;28;20236;-66
2022/12/22 12:16:24;;;;;;;4.77;4.27;;;;;;;11.32;78.40;100229.16;6113100;28;20330;-67
2022/12/22 12:20:11;;;;;;;8.37;4.97;;;;;;;12.74;72.58;100223.00;6122253;28;20255;-67
2022/12/22 12:23:58;;;;;;;5.27;4.30;;;;;;;13.93;67.33;100223.16;6105000;28;20219;-65
2022/12/22 12:27:39;;;;;;;6.33;4.83;;;;;;;13.35;68.99;100220.69;6110418;28;20331;-66
2022/12/22 12:31:01;;;;;;;5.47;4.97;;;;;;;12.89;71.02;100228.59;6111357;28;20619;-67
2022/12/22 12:34:24;;;;;;;4.93;4.03;;;;;;;12.04;71.45;100229.66;6102409;28;20516;-66
2022/12/22 12:37:50;;;;;;;6.80;5.47;;;;;;;10.95;75.39;100226.69;6115782;28;20235;-67
2022/12/22 12:41:20;;;;;;;8.27;4.83;;;;;;;10.64;77.26;100236.13;6109291;28;20224;-67
2022/12/22 12:44:44;;;;;;;5.63;4.43;;;;;;;10.15;79.48;100246.34;6111181;28;20243;-65
2022/12/22 12:48:36;;;;;;;6.33;3.80;;;;;;;10.39;79.53;100243.94;6104842;28;20247;-66
2022/12/22 12:51:57;;;;;;;5.83;5.17;;;;;;;10.02;80.36;100247.63;6118656;28;20334;-66
2022/12/22 12:55:26;;;;;;;7.17;5.03;;;;;;;10.41;79.86;100249.16;6117450;28;20240;-66
2022/12/22 12:58:50;;;;;;;6.20;4.27;;;;;;;10.94;78.44;100242.00;6113149;28;20238;-66
2022/12/22 13:02:34;;;;;;;6.03;5.40;;;;;;;11.43;76.09;100239.72;6113094;28;20323;-67
2022/12/22 13:05:56;;;;;;;5.67;4.17;;;;;;;12.17;72.72;100256.25;6115948;28;20235;-66
2022/12/22 13:09:18;;;;;;;9.33;6.67;;;;;;;11.58;73.71;100257.88;6118248;28;20265;-67
2022/12/22 13:12:40;;;;;;;5.57;4.03;;;;;;;11.60;75.03;100261.25;6117676;28;20231;-66
2022/12/22 13:16:21;;;;;;;6.70;5.03;;;;;;;11.24;76.40;100268.56;6100458;28;20275;-68
2022/12/22 13:19:47;;;;;;;5.40;4.80;;;;;;;11.55;73.66;100270.84;6115494;28;20230;-66
2022/12/22 13:23:14;;;;;;;7.37;4.50;;;;;;;11.85;72.02;100273.97;6108180;28;20331;-67
2022/12/22 13:26:38;;;;;;;12.87;7.03;;;;;;;10.48;77.39;100274.53;6119860;28;20228;-66
2022/12/22 13:29:59;;;;;;;7.07;5.13;;;;;;;11.05;75.42;100279.53;6121154;28;20736;-66
2022/12/22 13:33:24;;;;;;;6.47;5.20;;;;;;;10.27;78.02;100279.31;6103554;28;20231;-66
2022/12/22 13:36:48;;;;;;;7.20;5.57;;;;;;;10.09;79.12;100287.31;6110037;28;20488;-65
2022/12/22 13:40:19;;;;;;;6.63;4.60;;;;;;;9.92;79.57;100284.50;6119002;28;20626;-66
2022/12/22 13:43:43;;;;;;;6.33;5.37;;;;;;;10.04;79.76;100286.88;6112532;28;20227;-66
2022/12/22 13:47:06;;;;;;;8.70;4.93;;;;;;;9.97;79.10;100290.31;6113040;28;20258;-67
2022/12/22 13:50:33;;;;;;;7.03;4.17;;;;;;;9.64;80.34;100289.81;6126391;28;20334;-65
2022/12/22 13:53:58;;;;;;;6.40;5.03;;;;;;;9.74;80.89;100278.19;6121072;28;20293;-66
2022/12/22 13:57:22;;;;;;;7.83;4.87;;;;;;;9.55;81.06;100277.22;6108507;28;20839;-67
2022/12/22 14:00:44;;;;;;;6.50;4.63;;;;;;;9.47;81.30;100274.41;6120400;28;20228;-67
2022/12/22 14:04:06;;;;;;;7.87;5.13;;;;;;;9.55;80.50;100279.91;6111389;28;20250;-67
2022/12/22 14:07:27;;;;;;;5.37;4.27;;;;;;;9.34;82.34;100281.09;6118434;28;20236;-67
2022/12/22 14:10:50;;;;;;;7.70;5.10;;;;;;;9.15;82.75;100295.41;6115667;28;20375;-66
2022/12/22 14:14:17;;;;;;;6.60;4.93;;;;;;;9.18;82.62;100310.41;6118587;28;20235;-67
2022/12/22 14:17:40;;;;;;;6.30;4.50;;;;;;;8.97;83.83;100313.19;6118964;28;20236;-67
2022/12/22 14:21:01;;;;;;;5.23;3.40;;;;;;;9.07;84.10;100305.16;6117877;28;20231;-67
2022/12/22 14:24:27;;;;;;;4.27;2.77;;;;;;;8.89;83.90;100315.75;6108751;28;20243;-66
2022/12/22 14:27:53;;;;;;;4.17;3.53;;;;;;;8.84;84.56;100316.16;6116274;28;20235;-66
2022/12/22 14:31:14;;;;;;;8.23;4.50;;;;;;;8.77;84.85;100330.28;6115033;28;20228;-67
2022/12/22 14:34:35;;;;;;;5.73;4.27;;;;;;;8.74;84.88;100328.72;6109347;28;20263;-67
2022/12/22 14:38:17;;;;;;;8.53;3.83;;;;;;;8.66;86.33;100322.34;6123332;28;20314;-66
2022/12/22 14:41:42;;;;;;;8.87;3.23;;;;;;;8.67;86.43;100326.75;6119911;28;20565;-67
2022/12/22 14:45:14;;;;;;;4.70;2.93;;;;;;;8.65;85.78;100329.56;6117577;28;20236;-66
2022/12/22 14:48:38;;;;;;;6.53;3.30;;;;;;;8.61;86.83;100330.84;6101247;28;20234;-67
2022/12/22 14:52:06;;;;;;;7.30;4.00;;;;;;;8.52;87.03;100342.38;6119752;28;20224;-67
2022/12/22 14:55:29;;;;;;;7.20;4.47;;;;;;;8.51;87.78;100334.47;6109856;28;20518;-68
2022/12/22 14:58:50;;;;;;;10.50;4.97;;;;;;;8.45;87.75;100335.03;6120545;28;20224;-67
2022/12/22 15:02:25;;;;;;;7.10;4.73;;;;;;;8.42;87.46;100337.97;6115420;28;20572;-67
2022/12/22 15:05:46;;;;;;;5.97;3.90;;;;;;;8.43;87.64;100339.66;6110156;28;20430;-66
2022/12/22 15:09:23;;;;;;;4.93;4.43;;;;;;;8.41;87.39;100336.25;6121953;28;20622;-67
2022/12/22 15:12:45;;;;;;;5.40;4.87;;;;;;;8.34;88.14;100337.78;6109749;28;20264;-66
2022/12/22 15:16:06;;;;;;;5.97;3.57;;;;;;;8.24;88.11;100340.38;6120002;28;20614;-67
2022/12/22 15:19:31;;;;;;;7.13;5.00;;;;;;;8.22;88.31;100347.72;6110896;28;20236;-66
2022/12/22 15:22:52;;;;;;;4.80;4.00;;;;;;;8.24;88.38;100355.69;6112679;28;20237;-66
2022/12/22 15:26:14;;;;;;;5.53;3.63;;;;;;;8.21;88.31;100367.53;6122647;28;20232;-64
2022/12/22 15:29:34;;;;;;;5.00;4.00;;;;;;;8.20;88.82;100367.66;6113089;28;20300;-67
2022/12/22 15:32:56;;;;;;;9.27;5.20;;;;;;;8.13;88.56;100367.34;6114588;28;20236;-66
2022/12/22 15:36:18;;;;;;;6.93;4.80;;;;;;;8.15;88.29;100380.63;6118613;28;20236;-66
2022/12/22 15:39:39;;;;;;;6.37;3.27;;;;;;;8.05;88.46;100380.59;6118495;28;20256;-67
2022/12/22 15:43:00;;;;;;;4.80;3.77;;;;;;;8.03;88.08;100386.06;6121982;28;20330;-66
2022/12/22 15:46:21;;;;;;;9.07;4.37;;;;;;;8.05;88.60;100392.16;6113647;28;20236;-67
2022/12/22 15:49:42;;;;;;;11.73;4.17;;;;;;;8.11;88.70;100389.94;6113273;28;20235;-66
2022/12/22 15:53:07;;;;;;;4.40;3.67;;;;;;;8.09;89.32;100396.28;6123313;28;20224;-66
2022/12/22 15:56:32;;;;;;;7.87;4.60;;;;;;;8.08;89.49;100397.28;6115786;28;20323;-67
2022/12/22 15:59:52;;;;;;;5.33;4.07;;;;;;;7.95;89.65;100398.44;6116382;28;20227;-66
2022/12/22 16:03:14;;;;;;;9.40;6.63;;;;;;;7.95;90.10;100399.28;6113159;28;20663;-66
2022/12/22 16:06:35;;;;;;;10.97;6.00;;;;;;;7.93;91.05;100403.09;6127984;28;20228;-67
2022/12/22 16:09:58;;;;;;;10.60;5.67;;;;;;;7.96;90.11;100405.53;6114404;28;20243;-66
2022/12/22 16:13:21;;;;;;;7.90;4.67;;;;;;;7.88;90.13;100411.56;6117161;28;20243;-66
2022/12/22 16:16:42;;;;;;;7.97;4.57;;;;;;;7.84;90.35;100414.63;6117112;28;20314;-65
2022/12/22 16:20:04;;;;;;;8.70;4.73;;;;;;;7.76;90.58;100409.88;6111559;28;20258;-66
2022/12/22 16:23:27;;;;;;;7.93;5.63;;;;;;;7.64;91.50;100412.75;6115598;28;20263;-66
2022/12/22 16:26:49;;;;;;;7.17;5.37;;;;;;;7.68;90.90;100401.63;6116917;28;20283;-66
2022/12/22 16:30:17;;;;;;;6.27;4.30;;;;;;;7.63;90.22;100405.69;6115757;28;20239;-65
2022/12/22 16:33:38;;;;;;;7.27;5.33;;;;;;;7.64;90.37;100394.84;6106614;28;20223;-65
2022/12/22 16:36:58;;;;;;;13.43;6.33;;;;;;;7.59;90.23;100399.75;6102049;28;20320;-65
2022/12/22 16:40:19;;;;;;;4.60;3.97;;;;;;;7.56;89.41;100407.19;6112939;28;20327;-66
2022/12/22 16:43:41;;;;;;;9.50;4.53;;;;;;;7.53;88.46;100400.25;6107614;28;20232;-66
2022/12/22 16:47:04;;;;;;;9.60;5.33;;;;;;;7.49;88.73;100397.97;6114978;28;20633;-67
2022/12/22 16:50:31;;;;;;;7.40;5.27;;;;;;;7.51;88.71;100406.75;6106201;28;20240;-66
2022/12/22 16:53:52;;;;;;;4.73;4.33;;;;;;;7.58;88.39;100403.41;6115097;28;20232;-67
2022/12/22 16:57:14;;;;;;;3.60;3.07;;;;;;;7.48;87.97;100401.63;6106459;28;20236;-66
2022/12/22 17:00:37;;;;;;;10.83;4.23;;;;;;;7.56;87.74;100405.38;6107963;28;20634;-66
2022/12/22 17:04:02;;;;;;;4.30;3.90;;;;;;;7.56;88.48;100402.69;6111359;28;20236;-67
2022/12/22 17:07:22;;;;;;;7.87;5.40;;;;;;;7.66;87.89;100402.75;6114738;28;20621;-66
2022/12/22 17:10:43;;;;;;;9.13;3.53;;;;;;;7.55;87.51;100397.44;6114035;28;20255;-65
2022/12/22 17:14:07;;;;;;;5.13;3.93;;;;;;;7.49;87.91;100397.97;6112721;28;20379;-64
2022/12/22 17:17:30;;;;;;;6.47;4.53;;;;;;;7.48;88.30;100386.38;6112104;28;20247;-66
2022/12/22 17:20:54;;;;;;;8.93;4.10;;;;;;;7.49;88.65;100388.06;6098332;28;20241;-65
2022/12/22 17:24:17;;;;;;;4.10;3.30;;;;;;;7.45;89.03;100394.66;6107834;28;20646;-66
2022/12/22 17:27:38;;;;;;;8.93;4.33;;;;;;;7.45;88.44;100405.41;6111770;28;20228;-66
2022/12/22 17:30:59;;;;;;;6.43;3.70;;;;;;;7.50;88.83;100389.78;6111904;28;20255;-66
2022/12/22 17:34:21;;;;;;;7.40;3.97;;;;;;;7.44;89.24;100393.00;6106603;28;20597;-66
2022/12/22 17:37:43;;;;;;;6.00;4.03;;;;;;;7.51;88.92;100396.84;6113906;28;20239;-66
2022/12/22 17:41:04;;;;;;;9.00;4.13;;;;;;;7.52;88.64;100389.66;6112056;28;20240;-66
2022/12/22 17:44:26;;;;;;;4.10;3.20;;;;;;;7.44;88.55;100384.94;6112997;28;20303;-66
2022/12/22 17:47:47;;;;;;;5.33;3.30;;;;;;;7.54;88.88;100376.97;6115263;28;20247;-66
2022/12/22 17:51:15;;;;;;;10.07;3.37;;;;;;;7.53;88.88;100381.47;6111773;28;20236;-66
2022/12/22 17:54:36;;;;;;;6.23;3.83;;;;;;;7.45;89.27;100381.25;6110061;28;20231;-66
2022/12/22 17:57:57;;;;;;;5.83;4.73;;;;;;;7.53;88.53;100378.78;6116202;28;20520;-65
2022/12/22 18:01:23;;;;;;;7.80;5.00;;;;;;;7.53;89.30;100388.69;6112860;28;20231;-65
2022/12/22 18:04:44;;;;;;;8.83;4.00;;;;;;;7.47;88.86;100373.13;6115450;28;20630;-65
2022/12/22 18:08:12;;;;;;;11.30;5.77;;;;;;;7.50;89.44;100381.75;6113577;28;20259;-67
2022/12/22 18:11:33;;;;;;;5.87;4.67;;;;;;;7.46;89.20;100369.56;6107480;28;20230;-65
2022/12/22 18:14:54;;;;;;;6.83;4.73;;;;;;;7.41;89.43;100378.97;6112428;28;20236;-66
2022/12/22 18:18:16;;;;;;;6.80;4.27;;;;;;;7.33;90.53;100365.34;6115157;28;20345;-65
2022/12/22 18:21:38;;;;;;;7.03;5.47;;;;;;;7.31;90.24;100359.25;6114318;28;20228;-66
2022/12/22 18:25:00;;;;;;;7.03;4.27;;;;;;;7.26;90.81;100368.53;6114111;28;20248;-66
2022/12/22 18:28:21;;;;;;;8.50;5.90;;;;;;;7.18;90.83;100362.13;6105202;28;20232;-66
2022/12/22 18:31:42;;;;;;;12.03;6.47;;;;;;;7.16;91.19;100372.13;6115215;28;20228;-65
2022/12/22 18:35:03;;;;;;;8.40;4.97;;;;;;;7.14;92.23;100372.25;6112678;28;20244;-66
2022/12/22 18:38:28;;;;;;;11.30;6.17;;;;;;;7.18;91.37;100362.13;6116978;28;20227;-64
2022/12/22 18:41:53;;;;;;;5.70;4.93;;;;;;;7.18;91.90;100365.66;6114965;28;20239;-67
2022/12/22 18:45:14;;;;;;;9.33;6.10;;;;;;;7.19;92.03;100362.00;6114911;28;20231;-65
2022/12/22 18:48:35;;;;;;;6.57;3.73;;;;;;;7.15;92.16;100359.72;6112004;28;20259;-66
2022/12/22 18:51:56;;;;;;;7.47;4.93;;;;;;;7.14;91.56;100358.00;6108796;28;20233;-66
2022/12/22 18:55:18;;;;;;;6.93;5.27;;;;;;;7.19;92.09;100355.78;6117863;28;20261;-66
2022/12/22 18:58:41;;;;;;;15.47;6.10;;;;;;;7.30;91.25;100354.91;6115196;28;20548;-67
2022/12/22 19:02:15;;;;;;;7.00;4.77;;;;;;;7.33;91.03;100357.31;6120096;28;20335;-67
2022/12/22 19:05:36;;;;;;;6.77;4.93;;;;;;;7.34;90.78;100359.03;6112057;28;20235;-66
2022/12/22 19:08:57;;;;;;;8.60;5.57;;;;;;;7.27;90.67;100345.28;6109700;28;20244;-66
2022/12/22 19:12:21;;;;;;;16.37;5.07;;;;;;;7.29;91.37;100356.72;6130791;28;20235;-66
2022/12/22 19:15:44;;;;;;;6.30;5.37;;;;;;;7.31;91.46;100352.09;6120378;28;20602;-66
2022/12/22 19:19:04;;;;;;;12.87;4.27;;;;;;;7.32;90.79;100359.16;6111620;28;20625;-67
2022/12/22 19:22:25;;;;;;;12.33;5.10;;;;;;;7.30;91.43;100358.44;6116001;28;20676;-67
2022/12/22 19:25:48;;;;;;;14.53;5.93;;;;;;;7.31;90.77;100345.88;6117763;28;20328;-66
2022/12/22 19:29:13;;;;;;;5.13;4.10;;;;;;;7.34;90.98;100348.31;6107775;28;20311;-66
2022/12/22 19:32:41;;;;;;;6.50;4.53;;;;;;;7.33;91.35;100343.91;6107064;28;20243;-65